createdAt,value
2019-05-05T00:01:07.814Z,6.44
2019-05-05T00:03:44.570Z,6.45
2019-05-05T00:06:14.697Z,6.42
2019-05-05T00:08:42.323Z,6.42
2019-05-05T00:11:35.155Z,6.42
2019-05-05T00:14:12.652Z,6.45
2019-05-05T00:16:47.335Z,6.48
2019-05-05T00:19:28.994Z,6.47
2019-05-05T00:21:45.236Z,6.42
2019-05-05T00:24:15.059Z,6.43
2019-05-05T00:26:42.987Z,6.47
2019-05-05T00:29:10.742Z,6.46
2019-05-05T00:31:38.606Z,6.49
2019-05-05T00:34:06.704Z,6.50
2019-05-05T00:36:35.252Z,6.50
2019-05-05T00:39:06.215Z,6.50
2019-05-05T00:41:34.612Z,6.51
2019-05-05T00:44:04.612Z,6.51
2019-05-05T00:46:55.070Z,6.51
2019-05-05T00:49:24.999Z,6.50
2019-05-05T00:51:54.674Z,6.50
2019-05-05T00:54:24.425Z,6.50
2019-05-05T00:56:54.326Z,6.48
2019-05-05T00:59:25.230Z,6.49
2019-05-05T01:02:08.690Z,6.49
2019-05-05T01:04:44.512Z,6.50
2019-05-05T01:07:14.308Z,6.51
2019-05-05T01:09:45.111Z,6.51
2019-05-05T01:12:14.932Z,6.52
2019-05-05T01:14:44.744Z,6.54
2019-05-05T01:17:14.728Z,6.55
2019-05-05T01:19:42.587Z,6.56
2019-05-05T01:22:10.409Z,6.57
2019-05-05T01:24:40.249Z,6.58
2019-05-05T01:27:08.283Z,6.58
2019-05-05T01:29:36.674Z,6.59
2019-05-05T01:32:06.797Z,6.61
2019-05-05T01:34:41.272Z,6.61
2019-05-05T01:37:26.968Z,6.64
2019-05-05T01:40:18.172Z,6.64
2019-05-05T01:42:46.032Z,6.64
2019-05-05T01:45:14.935Z,6.63
2019-05-05T01:47:42.831Z,6.68
2019-05-05T01:50:18.356Z,6.67
2019-05-05T01:52:40.453Z,6.67
2019-05-05T01:55:08.551Z,6.65
2019-05-05T01:57:37.385Z,6.64
2019-05-05T02:00:05.762Z,6.66
2019-05-05T02:02:34.281Z,6.63
2019-05-05T02:05:04.442Z,6.62
2019-05-05T02:07:34.186Z,6.70
2019-05-05T02:10:01.945Z,6.70
2019-05-05T02:12:29.827Z,6.66
2019-05-05T02:14:57.913Z,6.64
2019-05-05T02:17:25.823Z,6.66
2019-05-05T02:19:55.054Z,6.66
2019-05-05T02:22:24.994Z,6.67
2019-05-05T02:24:54.925Z,6.63
2019-05-05T02:27:25.102Z,6.61
2019-05-05T02:30:18.859Z,6.63
2019-05-05T02:32:55.413Z,6.61
2019-05-05T02:35:25.640Z,6.63
2019-05-05T02:37:55.564Z,6.58
2019-05-05T02:40:24.496Z,6.58
2019-05-05T02:42:54.926Z,6.57
2019-05-05T02:45:55.220Z,6.57
2019-05-05T02:48:25.005Z,6.53
2019-05-05T02:51:01.221Z,6.52
2019-05-05T02:53:29.898Z,6.53
2019-05-05T02:56:04.298Z,6.52
2019-05-05T02:58:34.696Z,6.56
2019-05-05T03:01:25.450Z,6.52
2019-05-05T03:03:54.472Z,6.46
2019-05-05T03:06:23.803Z,6.45
2019-05-05T03:08:54.376Z,6.46
2019-05-05T03:11:23.703Z,6.45
2019-05-05T03:13:55.024Z,6.44
2019-05-05T03:16:27.564Z,6.44
2019-05-05T03:18:56.133Z,6.45
2019-05-05T03:21:24.361Z,6.44
2019-05-05T03:23:54.551Z,6.42
2019-05-05T03:26:23.417Z,6.41
2019-05-05T03:28:55.375Z,6.41
2019-05-05T03:31:26.233Z,6.41
2019-05-05T03:33:55.209Z,6.38
2019-05-05T03:36:26.923Z,6.36
2019-05-05T03:38:55.623Z,6.37
2019-05-05T03:41:36.166Z,6.37
2019-05-05T03:44:19.343Z,6.37
2019-05-05T03:46:47.685Z,6.40
2019-05-05T03:49:15.857Z,6.38
2019-05-05T03:51:44.007Z,6.40
2019-05-05T03:54:11.929Z,6.43
2019-05-05T03:56:40.056Z,6.36
2019-05-05T03:59:08.146Z,6.33
2019-05-05T04:01:54.719Z,6.32
2019-05-05T04:04:26.607Z,6.28
2019-05-05T04:06:54.658Z,6.29
2019-05-05T04:09:24.263Z,6.31
2019-05-05T04:11:53.975Z,6.32
2019-05-05T04:14:22.139Z,6.33
2019-05-05T04:16:56.637Z,6.38
2019-05-05T04:19:25.196Z,6.35
2019-05-05T04:21:53.643Z,6.37
2019-05-05T04:24:23.730Z,6.38
2019-05-05T04:26:51.454Z,6.41
2019-05-05T04:29:19.240Z,6.43
2019-05-05T04:31:47.769Z,6.48
2019-05-05T04:34:15.542Z,6.46
2019-05-05T04:36:44.383Z,6.46
2019-05-05T04:39:14.236Z,6.46
2019-05-05T04:41:43.981Z,6.45
2019-05-05T04:44:14.444Z,6.50
2019-05-05T04:46:44.210Z,6.49
2019-05-05T04:49:31.245Z,6.51
2019-05-05T04:52:00.644Z,6.56
2019-05-05T04:54:34.042Z,6.54
2019-05-05T04:57:01.750Z,6.52
2019-05-05T04:59:29.610Z,6.54
2019-05-05T05:02:01.417Z,6.53
2019-05-05T05:04:34.705Z,6.51
2019-05-05T05:07:04.627Z,6.52
2019-05-05T05:09:46.691Z,6.51
2019-05-05T05:12:16.250Z,6.51
2019-05-05T05:14:44.244Z,6.52
2019-05-05T05:17:19.695Z,6.58
2019-05-05T05:19:47.036Z,6.59
2019-05-05T05:22:15.899Z,6.60
2019-05-05T05:24:44.693Z,6.61
2019-05-05T05:27:13.858Z,6.57
2019-05-05T05:29:43.704Z,6.59
2019-05-05T05:32:11.462Z,6.63
2019-05-05T05:34:39.290Z,6.61
2019-05-05T05:37:07.655Z,6.59
2019-05-05T05:39:57.487Z,6.56
2019-05-05T05:42:25.319Z,6.59
2019-05-05T05:45:27.856Z,6.65
2019-05-05T05:48:23.978Z,6.66
2019-05-05T05:50:57.037Z,6.67
2019-05-05T05:53:25.355Z,6.73
2019-05-05T05:55:53.755Z,6.68
2019-05-05T05:58:21.809Z,6.73
2019-05-05T06:00:49.534Z,6.64
2019-05-05T06:03:17.287Z,6.64
2019-05-05T06:05:45.115Z,6.69
2019-05-05T06:08:14.160Z,6.70
2019-05-05T06:10:44.090Z,6.71
2019-05-05T06:13:14.927Z,6.77
2019-05-05T06:15:41.875Z,6.78
2019-05-05T06:18:10.416Z,6.87
2019-05-05T06:20:38.120Z,6.87
2019-05-05T06:23:06.500Z,6.83
2019-05-05T06:25:34.453Z,6.86
2019-05-05T06:28:04.304Z,6.86
2019-05-05T06:30:33.699Z,6.92
2019-05-05T06:33:01.728Z,6.94
2019-05-05T06:35:29.575Z,6.92
2019-05-05T06:37:57.358Z,6.92
2019-05-05T06:40:39.588Z,6.92
2019-05-05T06:43:34.664Z,6.96
2019-05-05T06:46:04.099Z,6.91
2019-05-05T06:48:34.347Z,6.97
2019-05-05T06:51:03.980Z,6.89
2019-05-05T06:53:34.017Z,6.95
2019-05-05T06:56:03.917Z,6.98
2019-05-05T06:58:31.348Z,7.02
2019-05-05T07:00:59.114Z,7.08
2019-05-05T07:03:27.483Z,7.09
2019-05-05T07:05:55.297Z,7.14
2019-05-05T07:08:24.412Z,7.17
2019-05-05T07:10:52.381Z,7.20
2019-05-05T07:13:20.176Z,7.29
2019-05-05T07:15:47.877Z,7.33
2019-05-05T07:18:16.289Z,7.38
2019-05-05T07:20:44.205Z,7.31
2019-05-05T07:23:14.319Z,7.38
2019-05-05T07:25:43.749Z,7.39
2019-05-05T07:28:11.233Z,7.43
2019-05-05T07:30:39.143Z,7.51
2019-05-05T07:33:06.898Z,7.57
2019-05-05T07:35:55.299Z,7.61
2019-05-05T07:38:24.574Z,7.65
2019-05-05T07:40:54.381Z,7.67
2019-05-05T07:43:23.968Z,7.77
2019-05-05T07:45:53.890Z,7.84
2019-05-05T07:48:30.133Z,7.95
2019-05-05T07:51:01.502Z,8.16
2019-05-05T07:53:27.521Z,8.32
2019-05-05T07:55:55.273Z,8.30
2019-05-05T07:58:24.298Z,8.26
2019-05-05T08:00:54.107Z,8.20
2019-05-05T08:03:23.621Z,8.18
2019-05-05T08:05:51.649Z,8.22
2019-05-05T08:08:19.492Z,8.33
2019-05-05T08:10:47.200Z,8.50
2019-05-05T08:13:14.968Z,8.58
2019-05-05T08:15:56.300Z,8.63
2019-05-05T08:18:34.603Z,8.90
2019-05-05T08:21:04.314Z,8.98
2019-05-05T08:23:40.987Z,9.05
2019-05-05T08:26:14.953Z,9.07
2019-05-05T08:29:04.511Z,9.02
2019-05-05T08:31:55.623Z,8.85
2019-05-05T08:34:24.501Z,8.84
2019-05-05T08:36:53.822Z,8.89
2019-05-05T08:39:24.282Z,8.87
2019-05-05T08:41:53.690Z,8.99
2019-05-05T08:44:21.089Z,8.96
2019-05-05T08:46:49.750Z,9.21
2019-05-05T08:49:17.463Z,9.34
2019-05-05T08:51:45.251Z,9.51
2019-05-05T08:54:14.293Z,9.86
2019-05-05T08:56:44.578Z,10.11
2019-05-05T08:59:14.149Z,10.17
2019-05-05T09:01:44.886Z,10.35
2019-05-05T09:04:14.189Z,10.57
2019-05-05T09:06:43.745Z,10.76
2019-05-05T09:09:11.767Z,10.78
2019-05-05T09:11:39.556Z,10.84
2019-05-05T09:14:07.382Z,10.95
2019-05-05T09:16:35.281Z,11.22
2019-05-05T09:19:07.604Z,11.36
2019-05-05T09:21:58.454Z,11.19
2019-05-05T09:24:48.981Z,11.13
2019-05-05T09:27:53.513Z,11.08
2019-05-05T09:30:35.996Z,11.23
2019-05-05T09:33:03.957Z,11.29
2019-05-05T09:35:31.784Z,11.28
2019-05-05T09:37:59.758Z,11.26
2019-05-05T09:40:38.241Z,11.46
2019-05-05T09:43:07.604Z,11.68
2019-05-05T09:45:35.676Z,11.96
2019-05-05T09:48:04.319Z,12.05
2019-05-05T09:50:34.154Z,11.95
2019-05-05T09:53:04.159Z,11.83
2019-05-05T09:55:33.595Z,11.66
2019-05-05T09:58:01.643Z,11.64
2019-05-05T10:00:33.526Z,11.33
2019-05-05T10:03:01.124Z,11.49
2019-05-05T10:05:28.851Z,11.51
2019-05-05T10:07:56.740Z,11.38
2019-05-05T10:10:24.458Z,11.34
2019-05-05T10:12:54.862Z,11.54
2019-05-05T10:15:22.114Z,11.68
2019-05-05T10:17:50.096Z,11.48
2019-05-05T10:20:17.914Z,11.57
2019-05-05T10:22:45.991Z,11.52
2019-05-05T10:25:53.834Z,11.71
2019-05-05T10:28:21.471Z,11.90
2019-05-05T10:30:49.289Z,11.96
2019-05-05T10:33:17.064Z,12.03
2019-05-05T10:35:44.885Z,11.97
2019-05-05T10:38:14.320Z,11.97
2019-05-05T10:40:44.765Z,12.11
2019-05-05T10:43:14.800Z,12.20
2019-05-05T10:45:44.067Z,12.10
2019-05-05T10:48:13.776Z,12.10
2019-05-05T10:50:41.822Z,11.90
2019-05-05T10:53:09.691Z,12.10
2019-05-05T10:55:37.489Z,12.08
2019-05-05T10:58:05.246Z,12.15
2019-05-05T11:00:44.791Z,12.32
2019-05-05T11:03:14.786Z,12.32
2019-05-05T11:05:44.546Z,12.43
2019-05-05T11:08:13.674Z,12.35
2019-05-05T11:10:44.783Z,12.41
2019-05-05T11:13:12.378Z,12.39
2019-05-05T11:15:40.177Z,12.32
2019-05-05T11:18:08.746Z,12.43
2019-05-05T11:20:36.682Z,12.07
2019-05-05T11:23:04.963Z,11.94
2019-05-05T11:25:35.779Z,12.13
2019-05-05T11:28:05.135Z,12.31
2019-05-05T11:30:35.539Z,12.47
2019-05-05T11:33:38.037Z,12.30
2019-05-05T11:36:17.499Z,12.05
2019-05-05T11:38:45.360Z,12.27
2019-05-05T11:41:14.400Z,12.32
2019-05-05T11:43:42.642Z,12.27
2019-05-05T11:46:11.405Z,12.24
2019-05-05T11:48:39.448Z,12.24
2019-05-05T11:51:07.371Z,12.41
2019-05-05T11:53:35.144Z,12.39
2019-05-05T11:56:04.203Z,12.46
2019-05-05T11:58:34.086Z,12.70
2019-05-05T12:01:03.713Z,12.70
2019-05-05T12:03:33.783Z,12.57
2019-05-05T12:06:03.774Z,12.67
2019-05-05T12:08:31.220Z,12.57
2019-05-05T12:11:00.345Z,12.66
2019-05-05T12:13:28.324Z,12.89
2019-05-05T12:16:00.412Z,12.96
2019-05-05T12:18:28.863Z,12.84
2019-05-05T12:20:56.673Z,12.72
2019-05-05T12:23:24.748Z,12.66
2019-05-05T12:26:18.146Z,12.43
2019-05-05T12:29:17.525Z,12.77
2019-05-05T12:31:49.741Z,13.62
2019-05-05T12:34:17.498Z,14.36
2019-05-05T12:36:45.392Z,15.27
2019-05-05T12:39:15.839Z,15.73
2019-05-05T12:41:44.711Z,16.33
2019-05-05T12:44:19.820Z,16.74
2019-05-05T12:47:07.197Z,17.05
2019-05-05T12:49:34.957Z,17.05
2019-05-05T12:52:04.541Z,17.23
2019-05-05T12:54:33.616Z,16.89
2019-05-05T12:57:01.760Z,15.46
2019-05-05T12:59:29.504Z,15.46
2019-05-05T13:01:58.126Z,14.39
2019-05-05T13:04:25.977Z,14.49
2019-05-05T13:06:54.141Z,14.23
2019-05-05T13:09:24.243Z,14.18
2019-05-05T13:11:54.030Z,13.68
2019-05-05T13:14:21.639Z,13.61
2019-05-05T13:16:52.985Z,13.35
2019-05-05T13:19:56.799Z,13.35
2019-05-05T13:22:44.322Z,13.37
2019-05-05T13:25:33.630Z,13.36
2019-05-05T13:28:01.573Z,13.25
2019-05-05T13:30:29.448Z,13.25
2019-05-05T13:32:59.900Z,13.18
2019-05-05T13:35:27.897Z,13.09
2019-05-05T13:37:55.715Z,13.17
2019-05-05T13:40:24.072Z,13.11
2019-05-05T13:42:52.096Z,13.24
2019-05-05T13:45:39.781Z,13.24
2019-05-05T13:48:07.712Z,14.18
2019-05-05T13:50:40.832Z,13.96
2019-05-05T13:53:09.359Z,13.96
2019-05-05T13:55:38.255Z,13.63
2019-05-05T13:58:08.627Z,13.63
2019-05-05T14:00:35.999Z,13.28
2019-05-05T14:03:04.086Z,13.28
2019-05-05T14:05:32.000Z,13.06
2019-05-05T14:07:59.723Z,12.73
2019-05-05T14:10:27.482Z,12.73
2019-05-05T14:12:57.638Z,12.72
2019-05-05T14:15:25.652Z,12.72
2019-05-05T14:17:54.356Z,12.62
2019-05-05T14:20:23.970Z,12.62
2019-05-05T14:22:51.827Z,12.47
2019-05-05T14:25:24.065Z,12.47
2019-05-05T14:27:51.726Z,12.64
2019-05-05T14:30:39.182Z,12.61
2019-05-05T14:33:10.798Z,12.74
2019-05-05T14:35:54.008Z,12.74
2019-05-05T14:38:34.018Z,12.86
2019-05-05T14:41:01.624Z,12.69
2019-05-05T14:43:29.389Z,13.53
2019-05-05T14:45:57.192Z,14.90
2019-05-05T14:48:24.971Z,15.08
2019-05-05T14:50:54.372Z,15.18
2019-05-05T14:53:24.086Z,15.18
2019-05-05T14:55:53.788Z,15.62
2019-05-05T14:58:21.719Z,15.88
2019-05-05T15:00:50.268Z,15.84
2019-05-05T15:03:18.011Z,15.84
2019-05-05T15:06:11.669Z,15.62
2019-05-05T15:08:57.680Z,15.12
2019-05-05T15:11:54.125Z,14.12
2019-05-05T15:14:24.257Z,13.65
2019-05-05T15:16:51.544Z,13.62
2019-05-05T15:19:19.351Z,13.62
2019-05-05T15:21:48.844Z,13.00
2019-05-05T15:24:16.785Z,12.73
2019-05-05T15:26:51.839Z,12.73
2019-05-05T15:29:14.154Z,12.87
2019-05-05T15:31:43.505Z,12.99
2019-05-05T15:34:11.490Z,12.99
2019-05-05T15:36:39.252Z,12.95
2019-05-05T15:39:08.161Z,12.95
2019-05-05T15:41:35.860Z,12.92
2019-05-05T15:44:04.174Z,12.83
2019-05-05T15:46:33.700Z,12.48
2019-05-05T15:49:04.187Z,12.48
2019-05-05T15:51:34.216Z,12.31
2019-05-05T15:54:03.697Z,12.19
2019-05-05T15:56:31.471Z,12.28
2019-05-05T15:58:59.215Z,12.28
2019-05-05T16:01:26.959Z,12.10
2019-05-05T16:03:54.962Z,11.99
2019-05-05T16:06:23.726Z,12.15
2019-05-05T16:08:54.454Z,12.30
2019-05-05T16:11:23.359Z,12.30
2019-05-05T16:13:51.416Z,12.25
2019-05-05T16:16:34.745Z,12.23
2019-05-05T16:19:27.935Z,12.29
2019-05-05T16:21:59.959Z,12.33
2019-05-05T16:24:33.596Z,12.42
2019-05-05T16:27:08.172Z,12.32
2019-05-05T16:29:33.645Z,12.36
2019-05-05T16:32:01.689Z,12.38
2019-05-05T16:34:29.448Z,12.44
2019-05-05T16:36:57.245Z,12.39
2019-05-05T16:39:25.699Z,12.33
2019-05-05T16:41:53.867Z,12.37
2019-05-05T16:44:23.424Z,12.37
2019-05-05T16:46:51.259Z,12.37
2019-05-05T16:49:19.005Z,12.43
2019-05-05T16:51:54.531Z,12.50
2019-05-05T16:54:33.643Z,12.46
2019-05-05T16:57:01.502Z,12.46
2019-05-05T16:59:29.312Z,12.46
2019-05-05T17:01:57.042Z,12.49
2019-05-05T17:04:24.805Z,12.53
2019-05-05T17:06:54.155Z,12.49
2019-05-05T17:09:24.076Z,12.53
2019-05-05T17:12:10.266Z,12.53
2019-05-05T17:15:05.501Z,12.57
2019-05-05T17:17:54.064Z,12.53
2019-05-05T17:20:24.593Z,12.56
2019-05-05T17:23:03.965Z,12.56
2019-05-05T17:25:31.651Z,12.57
2019-05-05T17:27:59.453Z,12.59
2019-05-05T17:30:27.911Z,12.59
2019-05-05T17:32:55.719Z,12.56
2019-05-05T17:35:24.046Z,12.56
2019-05-05T17:37:53.734Z,12.56
2019-05-05T17:40:48.287Z,12.56
2019-05-05T17:43:34.413Z,12.55
2019-05-05T17:46:09.438Z,12.51
2019-05-05T17:48:59.381Z,12.52
2019-05-05T17:51:46.659Z,12.49
2019-05-05T17:54:35.112Z,12.49
2019-05-05T17:57:03.507Z,12.48
2019-05-05T17:59:33.558Z,12.48
2019-05-05T18:02:01.474Z,12.47
2019-05-05T18:04:29.175Z,12.47
2019-05-05T18:07:11.009Z,12.44
2019-05-05T18:09:56.592Z,12.44
2019-05-05T18:12:34.864Z,12.43
2019-05-05T18:15:04.466Z,12.41
2019-05-05T18:17:34.001Z,12.34
2019-05-05T18:20:01.935Z,12.34
2019-05-05T18:22:29.822Z,12.33
2019-05-05T18:24:57.542Z,12.31
2019-05-05T18:27:25.337Z,12.29
2019-05-05T18:29:54.472Z,12.28
2019-05-05T18:32:23.531Z,12.21
2019-05-05T18:34:51.425Z,12.23
2019-05-05T18:37:19.180Z,12.18
2019-05-05T18:39:46.914Z,12.13
2019-05-05T18:42:24.528Z,12.10
2019-05-05T18:44:58.884Z,12.06
2019-05-05T18:47:26.736Z,12.06
2019-05-05T18:49:54.525Z,12.04
2019-05-05T18:52:24.317Z,12.00
2019-05-05T18:54:51.921Z,12.00
2019-05-05T18:57:26.540Z,11.94
2019-05-05T18:59:54.511Z,11.91
2019-05-05T19:02:53.768Z,11.87
2019-05-05T19:05:31.462Z,11.88
2019-05-05T19:08:11.403Z,11.85
2019-05-05T19:10:39.216Z,11.81
2019-05-05T19:13:07.074Z,11.78
2019-05-05T19:15:35.069Z,11.71
2019-05-05T19:18:04.073Z,11.68
2019-05-05T19:20:39.363Z,11.61
2019-05-05T19:23:07.851Z,11.57
2019-05-05T19:25:35.948Z,11.50
2019-05-05T19:28:04.677Z,11.46
2019-05-05T19:30:35.810Z,11.40
2019-05-05T19:33:04.337Z,11.36
2019-05-05T19:35:41.937Z,11.31
2019-05-05T19:38:04.745Z,11.27
2019-05-05T19:40:33.943Z,11.23
2019-05-05T19:43:04.334Z,11.18
2019-05-05T19:45:34.004Z,11.16
2019-05-05T19:48:05.550Z,11.13
2019-05-05T19:50:46.339Z,11.60
2019-05-05T19:53:24.766Z,12.15
2019-05-05T19:55:54.723Z,12.61
2019-05-05T19:58:23.325Z,12.77
2019-05-05T20:00:51.744Z,12.43
2019-05-05T20:03:20.280Z,12.13
2019-05-05T20:05:48.122Z,11.89
2019-05-05T20:08:16.037Z,11.70
2019-05-05T20:10:44.318Z,11.54
2019-05-05T20:13:14.276Z,11.40
2019-05-05T20:16:10.767Z,11.28
2019-05-05T20:18:38.601Z,11.21
2019-05-05T20:21:07.297Z,11.13
2019-05-05T20:23:37.260Z,11.06
2019-05-05T20:26:05.215Z,10.99
2019-05-05T20:28:33.870Z,10.85
2019-05-05T20:31:03.578Z,10.81
2019-05-05T20:33:37.448Z,10.75
2019-05-05T20:36:14.580Z,10.66
2019-05-05T20:38:45.989Z,10.60
2019-05-05T20:41:18.145Z,10.55
2019-05-05T20:43:46.097Z,10.50
2019-05-05T20:46:14.248Z,10.46
2019-05-05T20:48:44.651Z,10.57
2019-05-05T20:51:13.795Z,10.74
2019-05-05T20:53:44.767Z,10.70
2019-05-05T20:56:15.687Z,10.59
2019-05-05T20:58:44.057Z,10.49
2019-05-05T21:01:13.993Z,10.39
2019-05-05T21:03:42.522Z,10.30
2019-05-05T21:06:10.442Z,10.22
2019-05-05T21:08:38.996Z,10.16
2019-05-05T21:11:07.261Z,10.09
2019-05-05T21:13:35.648Z,10.09
2019-05-05T21:16:04.037Z,10.02
2019-05-05T21:18:31.799Z,9.96
2019-05-05T21:21:01.908Z,9.87
2019-05-05T21:23:36.693Z,9.80
2019-05-05T21:26:14.000Z,9.75
2019-05-05T21:28:41.863Z,10.00
2019-05-05T21:31:09.803Z,10.84
2019-05-05T21:33:38.100Z,11.36
2019-05-05T21:36:05.868Z,11.69
2019-05-05T21:38:35.625Z,11.93
2019-05-05T21:41:04.281Z,12.11
2019-05-05T21:43:32.282Z,12.23
2019-05-05T21:46:00.064Z,12.23
2019-05-05T21:48:27.768Z,12.32
2019-05-05T21:51:04.560Z,12.35
2019-05-05T21:53:41.902Z,12.42
2019-05-05T21:56:28.741Z,12.32
2019-05-05T21:58:58.324Z,11.87
2019-05-05T22:01:28.415Z,11.36
2019-05-05T22:03:56.479Z,11.03
2019-05-05T22:06:24.311Z,10.70
2019-05-05T22:08:53.692Z,10.48
2019-05-05T22:11:24.090Z,10.33
2019-05-05T22:13:53.812Z,10.20
2019-05-05T22:16:21.312Z,10.08
2019-05-05T22:18:49.392Z,9.97
2019-05-05T22:21:23.459Z,9.81
2019-05-05T22:24:09.215Z,9.74
2019-05-05T22:26:36.955Z,9.63
2019-05-05T22:29:05.424Z,9.54
2019-05-05T22:31:34.614Z,9.48
2019-05-05T22:34:05.114Z,9.44
2019-05-05T22:36:33.849Z,9.35
2019-05-05T22:39:02.190Z,9.27
2019-05-05T22:41:30.162Z,9.22
2019-05-05T22:43:58.100Z,9.18
2019-05-05T22:46:26.068Z,9.14
2019-05-05T22:48:54.517Z,9.09
2019-05-05T22:51:22.538Z,9.10
2019-05-05T22:53:51.087Z,9.05
2019-05-05T22:56:18.860Z,9.02
2019-05-05T22:58:47.107Z,8.94
2019-05-05T23:01:16.325Z,8.91
2019-05-05T23:03:55.229Z,8.90
2019-05-05T23:06:24.956Z,8.86
2019-05-05T23:08:54.621Z,8.79
2019-05-05T23:11:24.002Z,8.79
2019-05-05T23:13:55.633Z,8.77
2019-05-05T23:16:33.856Z,8.69
2019-05-05T23:19:02.608Z,8.66
2019-05-05T23:21:36.429Z,8.61
2019-05-05T23:24:25.300Z,8.61
2019-05-05T23:26:54.587Z,8.59
2019-05-05T23:29:26.631Z,8.55
2019-05-05T23:31:55.421Z,8.54
2019-05-05T23:34:24.241Z,8.52
2019-05-05T23:36:53.595Z,8.47
2019-05-05T23:39:21.710Z,8.44
2019-05-05T23:41:49.905Z,8.41
2019-05-05T23:44:17.649Z,8.39
2019-05-05T23:46:45.455Z,8.35
2019-05-05T23:49:13.783Z,8.33
2019-05-05T23:51:43.988Z,8.35
2019-05-05T23:54:13.541Z,8.32
2019-05-05T23:56:41.443Z,8.28
2019-05-05T23:59:09.203Z,8.27
